Time;durP1;ratioP1;P1;durP2;ratioP2;P2;SDS_P1;SDS_P2;PMS_P1;PMS_P2;Temp;Humidity;BMP_temperature;BMP_pressure;BME280_temperature;BME280_humidity;BME280_pressure;Samples;Min_cycle;Max_cycle;Signal;HPM_P1;HPM_P2
2022/02/08 00:02:11;;;;;;;;;;;0.10;57.50;;;;;;6172207;23;19996;-76
2022/02/08 00:04:38;;;;;;;;;;;0.10;57.50;;;;;;6159940;23;19931;-75
2022/02/08 00:07:06;;;;;;;;;;;0.10;57.60;;;;;;6184435;23;19920;-76
2022/02/08 00:09:33;;;;;;;;;;;0.00;57.00;;;;;;6167765;23;19940;-76
2022/02/08 00:12:11;;;;;;;;;;;0.00;57.50;;;;;;6184186;23;20355;-77
2022/02/08 00:14:39;;;;;;;;;;;0.00;58.20;;;;;;6182874;23;19916;-76
2022/02/08 00:17:06;;;;;;;;;;;-0.10;58.20;;;;;;6181682;23;20393;-75
2022/02/08 00:19:35;;;;;;;;;;;-0.10;58.30;;;;;;6182974;23;19923;-75
2022/02/08 00:22:02;;;;;;;;;;;-0.10;58.60;;;;;;6182890;23;19916;-74
2022/02/08 00:24:29;;;;;;;;;;;-0.10;59.30;;;;;;6186944;23;19916;-76
2022/02/08 00:26:56;;;;;;;;;;;-0.10;59.40;;;;;;6158923;23;19916;-75
2022/02/08 00:29:23;;;;;;;;;;;0.00;58.90;;;;;;6183560;23;19916;-76
2022/02/08 00:31:50;;;;;;;;;;;0.00;58.80;;;;;;6156851;23;19927;-75
2022/02/08 00:34:17;;;;;;;;;;;0.00;59.00;;;;;;6183644;23;20292;-77
2022/02/08 00:36:45;;;;;;;;;;;-0.10;59.20;;;;;;6155355;23;19926;-76
2022/02/08 00:39:12;;;;;;;;;;;-0.10;58.80;;;;;;6158018;23;19917;-75
2022/02/08 00:41:39;;;;;;;;;;;-0.10;59.10;;;;;;6156476;23;19916;-75
2022/02/08 00:49:04;;;;;;;;;;;-0.30;59.60;;;;;;6185131;23;19974;-74
2022/02/08 00:51:57;;;;;;;;;;;-0.40;59.60;;;;;;6159640;23;19916;-76
2022/02/08 00:54:18;;;;;;;;;;;-0.40;59.80;;;;;;6185851;23;19939;-76
2022/02/08 00:56:45;;;;;;;;;;;-0.40;60.70;;;;;;6160123;23;19916;-76
2022/02/08 00:59:12;;;;;;;;;;;-0.40;60.90;;;;;;6172884;23;19916;-76
2022/02/08 01:01:40;;;;;;;;;;;-0.50;60.70;;;;;;6157916;23;19971;-76
2022/02/08 01:04:08;;;;;;;;;;;-0.50;60.70;;;;;;6189103;23;19919;-74
2022/02/08 01:06:35;;;;;;;;;;;-0.60;61.20;;;;;;6173197;23;19927;-76
2022/02/08 01:09:31;;;;;;;;;;;-0.70;61.80;;;;;;6158896;23;19916;-76
2022/02/08 01:11:55;;;;;;;;;;;-0.70;62.00;;;;;;6183657;23;19920;-75
2022/02/08 01:14:24;;;;;;;;;;;-0.70;61.70;;;;;;6161107;23;20275;-75
2022/02/08 01:16:52;;;;;;;;;;;-0.70;62.50;;;;;;6185259;23;20388;-75
2022/02/08 01:19:21;;;;;;;;;;;-0.70;62.20;;;;;;6187681;23;19971;-77
2022/02/08 01:21:48;;;;;;;;;;;-0.70;63.10;;;;;;6158942;23;20245;-75
2022/02/08 01:24:15;;;;;;;;;;;-0.80;62.50;;;;;;6185315;23;19916;-77
2022/02/08 01:26:50;;;;;;;;;;;-0.80;62.20;;;;;;6121140;23;19916;-75
2022/02/08 01:32:17;;;;;;;;;;;-0.80;62.80;;;;;;6184363;23;19940;-76
2022/02/08 01:37:41;;;;;;;;;;;-0.90;63.50;;;;;;6185959;23;19967;-76
2022/02/08 01:43:07;;;;;;;;;;;-1.00;64.30;;;;;;6184066;23;19916;-75
2022/02/08 01:48:45;;;;;;;;;;;-1.00;65.20;;;;;;6183368;23;20325;-75
2022/02/08 01:51:11;;;;;;;;;;;-1.00;65.00;;;;;;6157473;23;19920;-77
2022/02/08 01:53:39;;;;;;;;;;;-1.10;65.30;;;;;;6183488;23;19927;-77
2022/02/08 01:56:07;;;;;;;;;;;-1.20;65.20;;;;;;6185880;23;19916;-77
2022/02/08 01:58:40;;;;;;;;;;;-1.30;66.20;;;;;;6185736;23;19920;-75
2022/02/08 02:01:08;;;;;;;;;;;-1.30;65.90;;;;;;6185494;23;20443;-74
2022/02/08 02:03:38;;;;;;;;;;;-1.30;65.90;;;;;;6159379;23;20286;-75
2022/02/08 02:06:21;;;;;;;;;;;-1.30;66.20;;;;;;6164611;23;19916;-76
2022/02/08 02:08:48;;;;;;;;;;;-1.20;66.20;;;;;;6187524;23;19916;-74
2022/02/08 02:11:15;;;;;;;;;;;-1.20;65.50;;;;;;6184706;23;20396;-77
2022/02/08 02:13:45;;;;;;;;;;;-1.20;65.60;;;;;;6157626;23;20418;-75
2022/02/08 02:16:15;;;;;;;;;;;-1.20;65.60;;;;;;6188111;23;19923;-74
2022/02/08 02:18:42;;;;;;;;;;;-1.20;65.40;;;;;;6160680;23;19975;-75
2022/02/08 02:21:09;;;;;;;;;;;-1.10;65.40;;;;;;6184302;23;20016;-77
2022/02/08 02:23:38;;;;;;;;;;;-1.10;64.90;;;;;;6159233;23;19924;-74
2022/02/08 02:26:04;;;;;;;;;;;-1.10;64.60;;;;;;6185537;23;20368;-76
2022/02/08 02:28:33;;;;;;;;;;;-1.20;64.20;;;;;;6157810;23;19954;-76
2022/02/08 02:30:59;;;;;;;;;;;-1.20;64.20;;;;;;6185755;23;19920;-76
2022/02/08 02:33:26;;;;;;;;;;;-1.20;64.20;;;;;;6183294;23;19966;-77
2022/02/08 02:35:53;;;;;;;;;;;-1.10;64.20;;;;;;6183696;23;20364;-77
2022/02/08 02:38:23;;;;;;;;;;;-1.10;63.50;;;;;;6157743;23;19923;-76
2022/02/08 02:40:52;;;;;;;;;;;-1.00;61.60;;;;;;6185265;23;19923;-76
2022/02/08 02:43:19;;;;;;;;;;;-0.70;59.40;;;;;;6169775;23;19920;-75
2022/02/08 02:45:46;;;;;;;;;;;-0.50;58.70;;;;;;6182903;23;20439;-75
2022/02/08 02:48:14;;;;;;;;;;;-0.50;59.00;;;;;;6185994;23;19923;-77
2022/02/08 02:50:41;;;;;;;;;;;-0.50;59.30;;;;;;6158008;23;19916;-76
2022/02/08 02:53:08;;;;;;;;;;;-0.60;59.40;;;;;;6157969;23;20330;-76
2022/02/08 02:55:35;;;;;;;;;;;-0.60;59.80;;;;;;6157130;23;19917;-75
2022/02/08 02:58:03;;;;;;;;;;;-0.60;59.10;;;;;;6183460;23;19916;-75
2022/02/08 03:00:40;;;;;;;;;;;-0.50;57.40;;;;;;6182360;23;19916;-75
2022/02/08 03:19:21;;;;;;;;;;;1.00;51.20;;;;;;6183891;23;19950;-75
2022/02/08 03:21:48;;;;;;;;;;;1.10;49.90;;;;;;6184339;23;19927;-77
2022/02/08 03:24:14;;;;;;;;;;;1.40;48.90;;;;;;6181597;23;20361;-75
2022/02/08 03:26:41;;;;;;;;;;;1.70;48.50;;;;;;6182287;23;19916;-75
2022/02/08 03:29:08;;;;;;;;;;;1.80;49.00;;;;;;6182889;23;20372;-77
2022/02/08 03:31:35;;;;;;;;;;;1.70;51.50;;;;;;6157532;23;19920;-75
2022/02/08 03:34:02;;;;;;;;;;;1.50;53.00;;;;;;6183536;23;19921;-76
2022/02/08 03:36:29;;;;;;;;;;;1.30;53.60;;;;;;6184037;23;19959;-76
2022/02/08 03:39:22;;;;;;;;;;;1.10;52.90;;;;;;6157510;23;19916;-77
2022/02/08 03:41:53;;;;;;;;;;;1.10;51.90;;;;;;6182019;23;19935;-77
2022/02/08 03:44:30;;;;;;;;;;;1.10;51.00;;;;;;6182151;23;19920;-77
2022/02/08 03:46:57;;;;;;;;;;;1.10;51.60;;;;;;6157367;23;19916;-77
2022/02/08 03:49:24;;;;;;;;;;;1.00;52.90;;;;;;6183776;23;19927;-77
2022/02/08 03:51:55;;;;;;;;;;;0.80;53.30;;;;;;6182503;23;19916;-77
2022/02/08 03:54:22;;;;;;;;;;;0.70;53.10;;;;;;6183471;23;19963;-77
2022/02/08 03:56:48;;;;;;;;;;;0.60;54.10;;;;;;6156588;23;19917;-75
2022/02/08 03:59:16;;;;;;;;;;;0.50;53.90;;;;;;6183585;23;19967;-77
2022/02/08 04:06:49;;;;;;;;;;;0.10;55.60;;;;;;6182673;23;19916;-75
2022/02/08 04:09:17;;;;;;;;;;;0.00;56.20;;;;;;6182520;23;19916;-74
2022/02/08 04:12:24;;;;;;;;;;;-0.10;57.30;;;;;;6181556;23;19947;-75
2022/02/08 04:14:45;;;;;;;;;;;-0.20;57.60;;;;;;6180046;23;19951;-75
2022/02/08 04:38:57;;;;;;;;;;;-0.90;60.70;;;;;;6183058;23;19920;-77
2022/02/08 04:41:42;;;;;;;;;;;-1.00;61.70;;;;;;6155198;23;19924;-77
2022/02/08 04:44:21;;;;;;;;;;;-1.00;61.60;;;;;;6183486;23;19975;-76
2022/02/08 04:46:57;;;;;;;;;;;-1.10;62.70;;;;;;6183462;23;20363;-77
2022/02/08 04:49:26;;;;;;;;;;;-1.20;63.30;;;;;;6182725;23;19967;-77
2022/02/08 04:51:58;;;;;;;;;;;-1.30;63.00;;;;;;6183557;23;19916;-75
2022/02/08 04:54:35;;;;;;;;;;;-1.30;63.30;;;;;;6179368;23;19940;-77
2022/02/08 05:02:23;;;;;;;;;;;-1.40;63.90;;;;;;6183235;23;19947;-75
2022/02/08 05:47:49;;;;;;;;;;;2.20;45.30;;;;;;6185015;23;19916;-77
2022/02/08 05:55:27;;;;;;;;;;;2.80;44.00;;;;;;6184701;23;19927;-77
2022/02/08 05:57:55;;;;;;;;;;;2.80;43.60;;;;;;6184159;23;19971;-76
2022/02/08 06:00:26;;;;;;;;;;;2.90;43.40;;;;;;6184612;23;20273;-75
2022/02/08 06:02:55;;;;;;;;;;;2.90;43.70;;;;;;6157454;23;19970;-75
2022/02/08 06:05:22;;;;;;;;;;;3.00;43.60;;;;;;6183737;23;19917;-76
2022/02/08 06:07:49;;;;;;;;;;;2.90;43.60;;;;;;6183268;23;19920;-75
2022/02/08 06:10:16;;;;;;;;;;;2.90;43.20;;;;;;6184520;23;20337;-75
2022/02/08 06:12:47;;;;;;;;;;;2.90;43.60;;;;;;6156644;23;19917;-76
2022/02/08 06:15:17;;;;;;;;;;;2.80;44.10;;;;;;6157751;23;19924;-77
2022/02/08 06:17:44;;;;;;;;;;;2.70;45.30;;;;;;6183600;23;20333;-75
2022/02/08 06:20:11;;;;;;;;;;;2.50;45.50;;;;;;6183221;23;19934;-76
2022/02/08 06:22:40;;;;;;;;;;;2.40;46.20;;;;;;6183470;23;19965;-76
2022/02/08 06:25:09;;;;;;;;;;;2.20;46.30;;;;;;6182846;23;19950;-76
2022/02/08 06:27:36;;;;;;;;;;;2.00;47.00;;;;;;6184653;23;19950;-75
2022/02/08 06:30:03;;;;;;;;;;;1.90;47.20;;;;;;6156954;23;19919;-76
2022/02/08 06:32:32;;;;;;;;;;;1.80;47.80;;;;;;6183352;23;19924;-77
2022/02/08 06:35:00;;;;;;;;;;;1.70;48.40;;;;;;6156425;23;20403;-76
2022/02/08 06:37:30;;;;;;;;;;;1.70;47.20;;;;;;6157264;23;19952;-76
2022/02/08 06:39:57;;;;;;;;;;;1.70;46.90;;;;;;6182130;23;19924;-77
2022/02/08 06:42:24;;;;;;;;;;;1.90;47.50;;;;;;6157272;23;20337;-76
2022/02/08 06:44:51;;;;;;;;;;;2.10;46.20;;;;;;6182778;23;19971;-74
2022/02/08 06:47:18;;;;;;;;;;;2.20;45.60;;;;;;6182338;23;19947;-75
2022/02/08 06:49:44;;;;;;;;;;;2.40;45.10;;;;;;6162636;23;19967;-75
2022/02/08 06:52:11;;;;;;;;;;;2.50;44.80;;;;;;6160850;23;19943;-77
2022/02/08 06:54:38;;;;;;;;;;;2.60;44.10;;;;;;6182365;23;19966;-77
2022/02/08 06:57:10;;;;;;;;;;;2.80;43.60;;;;;;6158105;23;19920;-76
2022/02/08 06:59:38;;;;;;;;;;;2.90;43.50;;;;;;6183623;23;19924;-75
2022/02/08 07:02:05;;;;;;;;;;;2.90;43.60;;;;;;6183164;23;19917;-77
2022/02/08 07:04:32;;;;;;;;;;;2.90;43.80;;;;;;6184867;23;20253;-76
2022/02/08 07:06:58;;;;;;;;;;;2.80;44.60;;;;;;6183214;23;19936;-76
2022/02/08 07:09:25;;;;;;;;;;;2.50;46.50;;;;;;6183860;23;19920;-75
2022/02/08 07:11:56;;;;;;;;;;;2.30;47.20;;;;;;6183034;23;19992;-77
2022/02/08 07:14:28;;;;;;;;;;;2.00;48.40;;;;;;6157862;23;19919;-75
2022/02/08 07:16:55;;;;;;;;;;;1.80;48.70;;;;;;6182205;23;19921;-76
2022/02/08 07:19:22;;;;;;;;;;;1.70;48.30;;;;;;6157686;23;19927;-76
2022/02/08 07:21:49;;;;;;;;;;;1.80;48.00;;;;;;6182318;23;19916;-76
2022/02/08 07:24:19;;;;;;;;;;;1.90;47.40;;;;;;6182607;23;19916;-75
2022/02/08 07:26:46;;;;;;;;;;;1.70;49.90;;;;;;6184002;23;19916;-76
2022/02/08 07:29:14;;;;;;;;;;;1.70;49.30;;;;;;6156922;23;19961;-75
2022/02/08 07:31:50;;;;;;;;;;;1.60;50.00;;;;;;6182490;23;20265;-77
2022/02/08 07:34:22;;;;;;;;;;;1.60;50.40;;;;;;6181616;23;19916;-75
2022/02/08 07:37:07;;;;;;;;;;;1.50;51.40;;;;;;6183792;23;19943;-77
2022/02/08 07:42:01;;;;;;;;;;;1.30;51.70;;;;;;6183815;23;19943;-76
2022/02/08 07:44:28;;;;;;;;;;;1.30;51.10;;;;;;6182612;23;19939;-77
2022/02/08 07:46:55;;;;;;;;;;;1.60;49.80;;;;;;6184290;23;19963;-76
2022/02/08 07:49:22;;;;;;;;;;;2.00;48.20;;;;;;6182206;23;19963;-76
2022/02/08 07:51:49;;;;;;;;;;;2.60;46.10;;;;;;6158219;23;19924;-77
2022/02/08 07:54:16;;;;;;;;;;;3.10;45.40;;;;;;6156773;23;19916;-77
2022/02/08 07:56:49;;;;;;;;;;;3.60;45.50;;;;;;6185428;23;19920;-77
2022/02/08 07:59:15;;;;;;;;;;;4.10;42.80;;;;;;6158652;23;19916;-75
2022/02/08 08:01:42;;;;;;;;;;;4.50;42.00;;;;;;6158444;23;19927;-75
2022/02/08 08:04:09;;;;;;;;;;;4.90;41.50;;;;;;6182467;23;19952;-75
2022/02/08 08:06:36;;;;;;;;;;;5.30;40.00;;;;;;6182134;23;19916;-75
2022/02/08 08:09:04;;;;;;;;;;;5.60;39.80;;;;;;6182480;23;19940;-76
2022/02/08 08:11:43;;;;;;;;;;;5.90;39.30;;;;;;6156434;23;19924;-76
2022/02/08 08:14:12;;;;;;;;;;;6.20;38.30;;;;;;6157492;23;19916;-76
2022/02/08 08:16:46;;;;;;;;;;;6.50;37.20;;;;;;6157121;23;19920;-76
2022/02/08 08:21:40;;;;;;;;;;;7.00;37.30;;;;;;6183022;23;20341;-76
2022/02/08 08:24:08;;;;;;;;;;;7.20;36.10;;;;;;6181840;23;19972;-76
2022/02/08 08:26:38;;;;;;;;;;;7.40;36.90;;;;;;6182858;23;19923;-76
2022/02/08 08:29:05;;;;;;;;;;;7.50;35.80;;;;;;6183015;23;19929;-75
2022/02/08 08:31:32;;;;;;;;;;;7.60;35.80;;;;;;6156092;23;19920;-77
2022/02/08 08:34:12;;;;;;;;;;;7.80;36.20;;;;;;6159260;23;20002;-76
2022/02/08 08:36:39;;;;;;;;;;;7.90;35.90;;;;;;6156023;23;19920;-76
2022/02/08 08:39:08;;;;;;;;;;;8.00;35.20;;;;;;6184136;23;20342;-77
2022/02/08 08:44:49;;;;;;;;;;;8.20;35.20;;;;;;6183087;23;19962;-76
2022/02/08 08:52:29;;;;;;;;;;;8.60;34.70;;;;;;6183262;23;19920;-76
2022/02/08 08:54:57;;;;;;;;;;;8.70;34.80;;;;;;6180340;23;20234;-77
2022/02/08 08:57:26;;;;;;;;;;;8.80;34.00;;;;;;6183125;23;19939;-77
2022/02/08 08:59:53;;;;;;;;;;;8.90;34.10;;;;;;6180674;23;19963;-76
2022/02/08 09:02:22;;;;;;;;;;;9.10;33.90;;;;;;6183855;23;19947;-77
2022/02/08 09:04:53;;;;;;;;;;;9.20;34.10;;;;;;6132199;23;19924;-76
2022/02/08 09:07:28;;;;;;;;;;;9.30;33.50;;;;;;6182717;23;19939;-76
2022/02/08 09:09:59;;;;;;;;;;;9.40;32.90;;;;;;6181455;23;19916;-76
2022/02/08 09:12:53;;;;;;;;;;;9.50;33.30;;;;;;6158942;23;19962;-75
2022/02/08 09:28:40;;;;;;;;;;;9.90;36.40;;;;;;6183417;23;20728;-77
2022/02/08 09:31:10;;;;;;;;;;;9.90;37.20;;;;;;6157861;23;19963;-76
2022/02/08 09:33:37;;;;;;;;;;;9.90;37.30;;;;;;6159849;23;19982;-76
2022/02/08 09:36:07;;;;;;;;;;;9.90;37.30;;;;;;6142517;23;19923;-78
2022/02/08 09:38:35;;;;;;;;;;;9.90;37.20;;;;;;6158565;23;19990;-76
2022/02/08 09:41:02;;;;;;;;;;;9.90;36.80;;;;;;6182615;23;19920;-77
2022/02/08 09:43:30;;;;;;;;;;;9.90;36.50;;;;;;6158672;23;20304;-77
2022/02/08 09:46:01;;;;;;;;;;;9.90;36.30;;;;;;6159783;23;19916;-76
2022/02/08 09:48:55;;;;;;;;;;;10.00;36.80;;;;;;6152812;23;19967;-77
2022/02/08 09:51:17;;;;;;;;;;;10.10;36.20;;;;;;6184314;23;20155;-76
2022/02/08 09:53:44;;;;;;;;;;;10.20;35.90;;;;;;6184031;23;19920;-77
2022/02/08 09:56:12;;;;;;;;;;;10.30;35.90;;;;;;6182658;23;19943;-76
2022/02/08 09:58:39;;;;;;;;;;;10.50;36.20;;;;;;6156485;23;19916;-76
2022/02/08 10:01:06;;;;;;;;;;;10.60;35.50;;;;;;6180956;23;20016;-76
2022/02/08 10:03:33;;;;;;;;;;;10.80;35.50;;;;;;6184823;23;19916;-76
2022/02/08 10:06:00;;;;;;;;;;;10.70;34.60;;;;;;6184032;23;20391;-76
2022/02/08 10:08:27;;;;;;;;;;;10.80;34.90;;;;;;6183541;23;20253;-77
2022/02/08 10:10:54;;;;;;;;;;;10.90;34.20;;;;;;6160102;23;19920;-77
2022/02/08 10:13:44;;;;;;;;;;;10.90;35.00;;;;;;6157317;23;19923;-76
2022/02/08 10:19:26;;;;;;;;;;;11.00;34.50;;;;;;6184468;23;19943;-76
2022/02/08 10:21:51;;;;;;;;;;;11.10;34.30;;;;;;6183277;23;20227;-77
2022/02/08 10:24:18;;;;;;;;;;;11.20;34.50;;;;;;6185187;23;19916;-76
2022/02/08 10:29:27;;;;;;;;;;;11.30;34.20;;;;;;6185086;23;19920;-77
2022/02/08 10:40:22;;;;;;;;;;;11.90;34.20;;;;;;6182845;23;19916;-77
2022/02/08 10:42:50;;;;;;;;;;;12.00;33.90;;;;;;6185156;23;19920;-78
2022/02/08 10:45:24;;;;;;;;;;;12.20;34.30;;;;;;6183971;23;19916;-77
2022/02/08 10:47:57;;;;;;;;;;;12.20;32.90;;;;;;6183712;23;19916;-77
2022/02/08 10:50:25;;;;;;;;;;;12.20;32.20;;;;;;6158611;23;19927;-77
2022/02/08 10:52:52;;;;;;;;;;;12.30;32.90;;;;;;6133814;23;19972;-77
2022/02/08 11:03:25;;;;;;;;;;;12.50;31.20;;;;;;6184892;23;19920;-76
2022/02/08 11:06:13;;;;;;;;;;;12.60;31.40;;;;;;6183430;23;19998;-77
2022/02/08 11:17:13;;;;;;;;;;;13.10;27.80;;;;;;6159297;23;19916;-78
2022/02/08 11:20:09;;;;;;;;;;;13.10;27.10;;;;;;6187454;23;19920;-77
2022/02/08 11:22:41;;;;;;;;;;;13.20;27.20;;;;;;6185153;23;19919;-75
2022/02/08 11:25:36;;;;;;;;;;;13.30;27.50;;;;;;6181171;23;20459;-77
2022/02/08 11:28:32;;;;;;;;;;;13.30;26.20;;;;;;6187677;23;19947;-78
2022/02/08 11:31:12;;;;;;;;;;;13.40;26.90;;;;;;6160583;23;19923;-78
2022/02/08 11:33:58;;;;;;;;;;;13.50;26.00;;;;;;6186029;23;20300;-76
2022/02/08 11:45:38;;;;;;;;;;;13.80;26.00;;;;;;6188738;23;19916;-77
2022/02/08 11:48:16;;;;;;;;;;;14.00;25.80;;;;;;6185695;23;19966;-78
2022/02/08 11:51:01;;;;;;;;;;;14.20;24.90;;;;;;6183280;23;19990;-77
2022/02/08 11:53:37;;;;;;;;;;;14.30;24.90;;;;;;6184034;23;19920;-76
2022/02/08 12:04:58;;;;;;;;;;;14.70;23.50;;;;;;6186318;23;19916;-76
2022/02/08 12:07:12;;;;;;;;;;;14.80;23.20;;;;;;6187025;23;20448;-78
2022/02/08 12:09:48;;;;;;;;;;;14.90;23.20;;;;;;6158180;23;20408;-77
2022/02/08 12:57:40;;;;;;;11.75;7.47;;;16.20;23.70;;;;;;6167838;23;20368;-76
2022/02/08 13:00:32;;;;;;;8.77;7.10;;;16.10;23.00;;;;;;6165105;23;20366;-78
2022/02/08 13:06:17;;;;;;;9.25;7.03;;;16.30;23.90;;;;;;6153965;23;20386;-79
2022/02/08 14:07:02;;;;;;;8.38;6.72;;;17.40;23.90;;;;;;6150417;23;20424;-76
2022/02/08 14:37:29;;;;;;;9.45;5.10;;;16.90;23.70;;;;;;6151222;23;20385;-78
2022/02/08 15:10:46;;;;;;;8.07;4.97;;;16.80;24.10;;;;;;6197716;23;20443;-77
2022/02/08 15:13:14;;;;;;;7.45;5.35;;;16.60;24.20;;;;;;6189809;23;20463;-76
2022/02/08 15:18:38;;;;;;;12.00;7.63;;;16.50;25.10;;;;;;6181839;23;20408;-77
2022/02/08 15:21:08;;;;;;;10.67;6.77;;;16.40;25.50;;;;;;6185223;23;20436;-77
2022/02/08 15:23:36;;;;;;;10.40;4.90;;;16.20;26.10;;;;;;6186358;23;20414;-77
2022/02/08 15:26:05;;;;;;;7.97;4.93;;;16.10;25.60;;;;;;6179635;23;20368;-76
2022/02/08 15:28:32;;;;;;;6.40;4.38;;;16.00;25.50;;;;;;6181970;23;20710;-76
2022/02/08 15:30:59;;;;;;;8.43;5.05;;;16.00;26.00;;;;;;6163662;23;20701;-78
2022/02/08 15:33:28;;;;;;;6.78;4.72;;;15.90;26.20;;;;;;6184917;23;20734;-78
2022/02/08 15:35:55;;;;;;;7.85;4.47;;;15.80;26.00;;;;;;6185663;23;20913;-77
2022/02/08 15:38:31;;;;;;;7.47;4.68;;;15.80;26.30;;;;;;6188047;23;20431;-76
2022/02/08 15:40:59;;;;;;;7.72;4.60;;;15.80;26.40;;;;;;6187882;23;20766;-77
2022/02/08 15:43:27;;;;;;;10.98;6.00;;;15.70;26.30;;;;;;6180030;23;20383;-76
2022/02/08 15:48:23;;;;;;;10.05;7.22;;;15.70;26.10;;;;;;6193043;23;20944;-77
2022/02/08 15:51:04;;;;;;;11.02;5.88;;;15.70;26.60;;;;;;6191628;23;20360;-77
2022/02/08 16:07:07;;;;;;;9.50;4.80;;;15.50;27.30;;;;;;6184167;23;20376;-76
2022/02/08 16:09:42;;;;;;;8.40;4.65;;;15.40;27.30;;;;;;6187185;23;20384;-77
2022/02/08 16:12:36;;;;;;;7.53;4.70;;;15.30;27.60;;;;;;6155443;23;20372;-78
2022/02/08 16:15:29;;;;;;;9.23;4.53;;;15.20;27.70;;;;;;6184679;23;20400;-76
2022/02/08 16:26:33;;;;;;;7.68;4.03;;;14.70;29.10;;;;;;6179556;23;20932;-76
2022/02/08 16:53:06;;;;;;;;;;;11.90;34.50;;;;;;6189215;23;20357;-76
2022/02/08 16:58:21;;;;;;;;;;;11.50;36.30;;;;;;6181481;23;19990;-75
2022/02/08 17:00:49;;;;;;;;;;;11.20;36.20;;;;;;6164377;23;20321;-77
2022/02/08 17:03:40;;;;;;;;;;;11.10;36.20;;;;;;6168969;23;19939;-76
2022/02/08 17:06:08;;;;;;;;;;;10.90;36.20;;;;;;6183778;23;20387;-77
2022/02/08 17:08:34;;;;;;;;;;;10.70;36.30;;;;;;6160733;23;19927;-76
2022/02/08 17:11:02;;;;;;;;;;;10.60;36.60;;;;;;6192713;23;19915;-76
2022/02/08 17:19:12;;;;;;;;;;;10.10;37.90;;;;;;6186991;23;19960;-76
2022/02/08 17:46:17;;;;;;;;;;;8.40;42.00;;;;;;6184000;23;20788;-77
2022/02/08 17:48:44;;;;;;;;;;;8.30;41.80;;;;;;6164390;23;19955;-76
2022/02/08 17:51:11;;;;;;;;;;;8.20;41.70;;;;;;6162108;23;19924;-78
2022/02/08 17:53:58;;;;;;;;;;;8.10;42.00;;;;;;6188270;23;19916;-76
2022/02/08 17:56:25;;;;;;;;;;;8.00;42.40;;;;;;6166084;23;20337;-77
2022/02/08 17:58:59;;;;;;;;;;;7.90;42.90;;;;;;6158788;23;19920;-76
2022/02/08 18:01:26;;;;;;;;;;;7.80;43.30;;;;;;6159487;23;19920;-77
2022/02/08 18:03:53;;;;;;;;;;;7.60;43.60;;;;;;6190905;23;19916;-76
2022/02/08 18:06:19;;;;;;;;;;;7.60;44.70;;;;;;6186342;23;19920;-76
2022/02/08 18:08:46;;;;;;;;;;;7.50;44.80;;;;;;6183431;23;19948;-76
2022/02/08 18:11:13;;;;;;;;;;;7.40;44.90;;;;;;6188156;23;19927;-78
2022/02/08 18:13:42;;;;;;;;;;;7.30;45.30;;;;;;6190676;23;19916;-77
2022/02/08 18:16:10;;;;;;;;;;;7.30;45.30;;;;;;6145018;23;19916;-77
2022/02/08 18:18:43;;;;;;;;;;;7.20;45.40;;;;;;6183899;23;19916;-76
2022/02/08 18:57:10;;;;;;;;;;;5.90;48.60;;;;;;6186966;23;19923;-77
2022/02/08 19:07:37;;;;;;;;;;;5.50;49.00;;;;;;6182321;23;20312;-76
2022/02/08 19:10:25;;;;;;;;;;;5.30;49.10;;;;;;6193675;23;20002;-76
2022/02/08 19:23:34;;;;;;;;;;;4.90;50.00;;;;;;6186699;23;20333;-76
2022/02/08 19:26:02;;;;;;;;;;;4.80;49.90;;;;;;6186605;23;20384;-76
2022/02/08 19:28:29;;;;;;;;;;;4.70;50.20;;;;;;6157389;23;19967;-77
2022/02/08 19:30:55;;;;;;;;;;;4.70;50.40;;;;;;6190244;23;19971;-76
2022/02/08 19:33:22;;;;;;;;;;;4.60;51.80;;;;;;6167969;23;20339;-75
2022/02/08 19:35:49;;;;;;;;;;;4.60;51.40;;;;;;6182437;23;19951;-76
2022/02/08 19:38:18;;;;;;;;;;;4.50;53.30;;;;;;6159483;23;19978;-75
2022/02/08 19:40:44;;;;;;;;;;;4.50;53.00;;;;;;6188392;23;19920;-76
2022/02/08 19:43:11;;;;;;;;;;;4.50;53.00;;;;;;6159011;23;19920;-76
2022/02/08 19:45:43;;;;;;;;;;;4.40;52.70;;;;;;6188178;23;19944;-75
2022/02/08 19:48:11;;;;;;;;;;;4.40;52.90;;;;;;6190873;23;19916;-75
2022/02/08 19:50:40;;;;;;;;;;;4.40;53.30;;;;;;6157620;23;20333;-76
2022/02/08 19:53:07;;;;;;;;;;;4.30;53.10;;;;;;6185980;23;19923;-77
2022/02/08 19:58:25;;;;;;;;;;;4.30;53.20;;;;;;6188566;23;19983;-75
2022/02/08 20:01:04;;;;;;;;;;;4.20;53.10;;;;;;6189502;23;19916;-76
2022/02/08 20:03:37;;;;;;;;;;;4.00;53.20;;;;;;6189826;23;19916;-77
2022/02/08 20:06:04;;;;;;;;;;;3.90;53.70;;;;;;6180867;23;19983;-77
2022/02/08 20:08:31;;;;;;;;;;;3.80;54.10;;;;;;6158999;23;19916;-76
2022/02/08 20:10:58;;;;;;;;;;;3.70;54.40;;;;;;6188504;23;19916;-76
2022/02/08 20:13:26;;;;;;;;;;;3.60;55.20;;;;;;6190299;23;20226;-75
2022/02/08 20:15:54;;;;;;;;;;;3.60;55.80;;;;;;6185778;23;19927;-75
2022/02/08 20:18:22;;;;;;;;;;;3.50;56.60;;;;;;6153208;23;19940;-76
2022/02/08 20:20:50;;;;;;;;;;;3.50;56.40;;;;;;6157113;23;19995;-75
2022/02/08 20:23:18;;;;;;;;;;;3.50;55.60;;;;;;6164360;23;20345;-77
2022/02/08 20:25:50;;;;;;;;;;;3.40;56.20;;;;;;6183047;23;19920;-75
2022/02/08 20:28:23;;;;;;;;;;;3.40;55.90;;;;;;6150701;23;19916;-77
2022/02/08 20:30:55;;;;;;;;;;;3.40;57.00;;;;;;6161524;23;19943;-78
2022/02/08 20:33:22;;;;;;;;;;;3.40;57.40;;;;;;6131195;23;20292;-77
2022/02/08 20:35:49;;;;;;;;;;;3.40;57.70;;;;;;6166348;23;19939;-77
2022/02/08 20:38:18;;;;;;;;;;;3.40;57.10;;;;;;6164257;23;19920;-77
2022/02/08 20:40:46;;;;;;;;;;;3.30;57.00;;;;;;6158451;23;20347;-76
2022/02/08 20:43:15;;;;;;;;;;;3.20;57.30;;;;;;6186223;23;19924;-75
2022/02/08 20:45:43;;;;;;;;;;;3.10;57.90;;;;;;6190749;23;19916;-76
2022/02/08 20:48:10;;;;;;;;;;;2.90;58.30;;;;;;6190377;23;19924;-77
2022/02/08 20:50:39;;;;;;;;;;;2.80;59.20;;;;;;6180098;23;19924;-77
2022/02/08 20:53:13;;;;;;;;;;;2.70;59.50;;;;;;6185404;23;19920;-77
2022/02/08 20:55:44;;;;;;;;;;;2.70;59.40;;;;;;6155391;23;20387;-78
2022/02/08 20:58:37;;;;;;;;;;;2.60;59.80;;;;;;6182312;23;19920;-77
2022/02/08 21:01:00;;;;;;;;;;;2.60;59.70;;;;;;6179923;23;19924;-76
2022/02/08 21:03:29;;;;;;;;;;;2.50;59.50;;;;;;6186257;23;20341;-77
2022/02/08 21:06:03;;;;;;;;;;;2.50;60.60;;;;;;6184906;23;19916;-77
2022/02/08 21:08:31;;;;;;;;;;;2.50;60.20;;;;;;6171699;23;19920;-75
2022/02/08 21:10:59;;;;;;;;;;;2.50;60.00;;;;;;6185981;23;20333;-77
2022/02/08 21:16:12;;;;;;;;;;;2.40;60.30;;;;;;6185786;23;19920;-75
2022/02/08 21:18:40;;;;;;;;;;;2.40;60.20;;;;;;6164924;23;19920;-77
2022/02/08 21:21:10;;;;;;;;;;;2.40;60.00;;;;;;6157679;23;20322;-75
2022/02/08 21:23:39;;;;;;;;;;;2.40;60.00;;;;;;6169255;23;19916;-76
2022/02/08 21:26:10;;;;;;;;;;;2.40;60.10;;;;;;6183526;23;19924;-75
2022/02/08 21:47:50;;;;;;;;;;;1.70;61.60;;;;;;6178963;23;19916;-75
2022/02/08 21:52:47;;;;;;;;;;;1.70;62.10;;;;;;6186069;23;19920;-75
2022/02/08 21:55:16;;;;;;;;;;;1.70;61.30;;;;;;6184683;23;20363;-75
2022/02/08 21:57:51;;;;;;;;;;;1.60;61.60;;;;;;6159922;23;20024;-77
2022/02/08 22:00:43;;;;;;;;;;;1.60;61.80;;;;;;6162381;23;19924;-77
2022/02/08 22:03:10;;;;;;;;;;;1.60;62.00;;;;;;6186586;23;19927;-77
2022/02/08 22:05:37;;;;;;;;;;;1.60;61.70;;;;;;6186819;23;19920;-75
2022/02/08 22:18:37;;;;;;;;;;;1.50;62.90;;;;;;6188771;23;19939;-75
2022/02/08 22:21:11;;;;;;;;;;;1.50;62.90;;;;;;6186028;23;19920;-75
2022/02/08 22:23:58;;;;;;;;;;;1.50;63.30;;;;;;6181916;23;19916;-77
2022/02/08 22:31:36;;;;;;;;;;;1.30;64.40;;;;;;6186020;23;19927;-77
2022/02/08 22:34:11;;;;;;;;;;;1.30;64.40;;;;;;6182879;23;20364;-76
2022/02/08 22:36:54;;;;;;;;;;;1.30;64.50;;;;;;6182781;23;19916;-77
2022/02/08 22:39:31;;;;;;;;;;;1.20;65.00;;;;;;6144765;23;19920;-77
2022/02/08 22:42:06;;;;;;;;;;;1.20;65.20;;;;;;6153426;23;19916;-75
2022/02/08 22:44:51;;;;;;;;;;;1.20;65.10;;;;;;6163054;23;20396;-76
2022/02/08 22:47:17;;;;;;;;;;;1.20;65.00;;;;;;6183967;23;19920;-76
2022/02/08 22:49:47;;;;;;;;;;;1.20;65.20;;;;;;6176732;23;20016;-77
2022/02/08 22:52:15;;;;;;;;;;;1.20;65.10;;;;;;6115511;23;19920;-77
2022/02/08 22:54:42;;;;;;;;;;;1.10;65.60;;;;;;6146744;23;20304;-76
2022/02/08 22:57:29;;;;;;;;;;;1.10;65.80;;;;;;6094446;23;20398;-75
2022/02/08 22:59:59;;;;;;;;;;;1.00;66.10;;;;;;6090484;23;19921;-77
2022/02/08 23:02:26;;;;;;;;;;;0.90;67.60;;;;;;6089082;23;19917;-77
2022/02/08 23:04:53;;;;;;;;;;;0.90;68.20;;;;;;6094389;23;20327;-76
2022/02/08 23:07:19;;;;;;;;;;;0.80;67.60;;;;;;6094838;23;19996;-77
2022/02/08 23:09:54;;;;;;;;;;;0.80;67.90;;;;;;6096206;23;19952;-77
2022/02/08 23:36:57;;;;;;;;;;;0.50;68.50;;;;;;6190027;23;19920;-76
2022/02/08 23:39:26;;;;;;;;;;;0.50;69.20;;;;;;6170541;23;19920;-75
2022/02/08 23:41:59;;;;;;;;;;;0.40;70.30;;;;;;6185288;23;19916;-77
2022/02/08 23:44:29;;;;;;;;;;;0.40;70.20;;;;;;6137995;23;19916;-77
2022/02/08 23:46:57;;;;;;;;;;;0.40;69.80;;;;;;6186615;23;19939;-75
2022/02/08 23:49:30;;;;;;;;;;;0.40;71.10;;;;;;6185035;23;19920;-77
2022/02/08 23:51:59;;;;;;;;;;;0.30;70.80;;;;;;6192350;23;19920;-75
2022/02/08 23:54:33;;;;;;;;;;;0.30;70.20;;;;;;6184410;23;20376;-77
2022/02/08 23:57:02;;;;;;;;;;;0.20;69.80;;;;;;6186460;23;19920;-77